Time;durP1;ratioP1;P1;durP2;ratioP2;P2;SDS_P1;SDS_P2;PMS_P1;PMS_P2;Temp;Humidity;BMP_temperature;BMP_pressure;BME280_temperature;BME280_humidity;BME280_pressure;Samples;Min_cycle;Max_cycle;Signal;HPM_P1;HPM_P2
2021/11/29 00:00:13;;;;;;;1.15;0.60;;;3.30;99.90;;;;;;5097243;27;20039;-72
2021/11/29 00:02:40;;;;;;;6.78;0.75;;;3.30;99.90;;;;;;5091604;27;20099;-71
2021/11/29 00:05:07;;;;;;;2.03;0.70;;;3.40;99.90;;;;;;5100572;27;20452;-72
2021/11/29 00:07:32;;;;;;;6.40;0.65;;;3.40;99.90;;;;;;5095239;28;20146;-75
2021/11/29 00:09:58;;;;;;;3.35;0.70;;;3.40;99.90;;;;;;5108120;27;20114;-72
2021/11/29 00:12:23;;;;;;;0.60;0.60;;;3.50;99.90;;;;;;5082338;27;20470;-71
2021/11/29 00:14:49;;;;;;;4.35;0.73;;;3.70;99.90;;;;;;5103115;27;20084;-74
2021/11/29 00:17:16;;;;;;;3.60;0.60;;;3.70;99.90;;;;;;5102203;27;20031;-73
2021/11/29 00:19:41;;;;;;;2.65;0.90;;;3.70;99.90;;;;;;5095797;28;20063;-74
2021/11/29 00:22:07;;;;;;;3.97;0.90;;;3.80;99.90;;;;;;5101946;27;20078;-70
2021/11/29 00:24:33;;;;;;;3.30;0.90;;;3.80;99.90;;;;;;5091729;27;20124;-69
2021/11/29 00:26:58;;;;;;;3.17;1.60;;;3.70;99.90;;;;;;5095532;27;20401;-70
2021/11/29 00:29:24;;;;;;;5.10;0.90;;;3.70;99.90;;;;;;5098448;27;20115;-71
2021/11/29 00:31:50;;;;;;;6.72;0.95;;;3.70;99.90;;;;;;5115924;27;20493;-70
2021/11/29 00:34:15;;;;;;;3.97;1.23;;;3.60;99.90;;;;;;5117697;27;20033;-70
2021/11/29 00:36:41;;;;;;;6.22;1.13;;;3.60;99.90;;;;;;5100209;27;20035;-70
2021/11/29 00:39:06;;;;;;;2.55;0.80;;;3.50;99.90;;;;;;5096582;27;20031;-68
2021/11/29 00:41:32;;;;;;;12.30;0.88;;;3.40;99.90;;;;;;5092323;28;20043;-68
2021/11/29 00:43:58;;;;;;;7.57;2.03;;;3.30;99.90;;;;;;5093342;27;20035;-69
2021/11/29 00:46:23;;;;;;;6.47;1.05;;;3.20;99.90;;;;;;5099089;27;20474;-68
2021/11/29 00:48:49;;;;;;;8.00;0.82;;;3.10;99.90;;;;;;5075218;27;20114;-68
2021/11/29 00:51:14;;;;;;;4.22;0.77;;;3.00;99.90;;;;;;5090230;27;20415;-68
2021/11/29 00:53:40;;;;;;;4.25;0.50;;;3.00;99.90;;;;;;5077209;28;20031;-67
2021/11/29 00:56:06;;;;;;;6.05;1.80;;;3.00;99.90;;;;;;5114556;27;20470;-68
2021/11/29 00:58:31;;;;;;;2.03;0.95;;;3.10;99.90;;;;;;5075549;28;20039;-68
2021/11/29 01:00:57;;;;;;;5.88;0.88;;;3.10;99.90;;;;;;5083633;27;20386;-70
2021/11/29 01:03:23;;;;;;;3.05;0.70;;;3.20;99.90;;;;;;5082739;28;20039;-70
2021/11/29 01:05:48;;;;;;;2.13;0.73;;;3.20;99.90;;;;;;5089650;27;20031;-72
2021/11/29 01:08:14;;;;;;;5.10;0.80;;;3.30;99.90;;;;;;5094161;27;20055;-70
2021/11/29 01:10:39;;;;;;;3.78;1.15;;;3.20;99.90;;;;;;5095841;27;20542;-70
2021/11/29 01:13:05;;;;;;;2.03;0.77;;;3.20;99.90;;;;;;5076113;27;20036;-70
2021/11/29 01:15:34;;;;;;;3.63;0.90;;;3.10;99.90;;;;;;5099793;27;20020;-72
2021/11/29 01:18:07;;;;;;;1.08;0.40;;;3.00;99.90;;;;;;5107055;27;20477;-71
2021/11/29 01:20:33;;;;;;;1.65;0.55;;;2.90;99.90;;;;;;5092110;27;20100;-74
2021/11/29 01:22:59;;;;;;;0.52;0.50;;;2.80;99.90;;;;;;5101715;27;20028;-73
2021/11/29 01:25:25;;;;;;;6.25;0.88;;;2.70;99.90;;;;;;5108283;27;20031;-68
2021/11/29 01:27:50;;;;;;;2.78;0.85;;;2.70;99.90;;;;;;5078731;27;20164;-70
2021/11/29 01:30:16;;;;;;;4.60;0.52;;;2.60;99.90;;;;;;5103591;27;20393;-70
2021/11/29 01:32:41;;;;;;;6.57;0.73;;;2.60;99.90;;;;;;5103288;27;20042;-69
2021/11/29 01:35:08;;;;;;;7.43;1.00;;;2.50;99.90;;;;;;5117520;27;20030;-70
2021/11/29 01:37:35;;;;;;;1.42;0.77;;;2.40;99.90;;;;;;5120553;27;20044;-69
2021/11/29 01:40:03;;;;;;;1.27;0.65;;;2.50;99.90;;;;;;5100678;27;20080;-69
2021/11/29 01:42:28;;;;;;;4.68;1.42;;;2.50;99.90;;;;;;5094321;27;20046;-69
2021/11/29 01:44:54;;;;;;;3.63;1.05;;;2.60;99.90;;;;;;5106820;27;20031;-68
2021/11/29 01:47:22;;;;;;;1.73;1.08;;;2.70;99.90;;;;;;5093712;28;20039;-68
2021/11/29 01:49:47;;;;;;;1.88;0.63;;;2.70;99.90;;;;;;5101364;27;20083;-69
2021/11/29 01:52:13;;;;;;;6.95;1.10;;;2.60;99.90;;;;;;5101162;28;20023;-68
2021/11/29 01:54:38;;;;;;;2.40;0.77;;;2.60;99.90;;;;;;5085768;27;20031;-69
2021/11/29 01:57:04;;;;;;;5.43;1.30;;;2.40;99.90;;;;;;5079631;27;20492;-68
2021/11/29 01:59:30;;;;;;;3.60;1.48;;;2.30;99.90;;;;;;5095413;28;20110;-69
2021/11/29 02:01:56;;;;;;;2.42;1.02;;;2.30;99.90;;;;;;5097841;27;20035;-68
2021/11/29 02:04:23;;;;;;;2.20;0.88;;;2.20;99.90;;;;;;5089654;27;20023;-69
2021/11/29 02:06:49;;;;;;;13.85;1.10;;;2.20;99.90;;;;;;5115626;27;20035;-68
2021/11/29 02:09:14;;;;;;;9.88;1.13;;;2.30;99.90;;;;;;5098682;28;20024;-69
2021/11/29 02:11:40;;;;;;;1.17;0.95;;;2.40;99.90;;;;;;5102395;27;20027;-69
2021/11/29 02:14:06;;;;;;;8.35;0.95;;;2.50;99.90;;;;;;5105504;27;20366;-69
2021/11/29 02:16:32;;;;;;;6.82;1.55;;;2.70;99.90;;;;;;5084009;27;20046;-67
2021/11/29 02:18:58;;;;;;;9.85;0.93;;;2.80;99.90;;;;;;5096597;28;20106;-66
2021/11/29 02:21:26;;;;;;;4.75;0.88;;;2.90;99.90;;;;;;5122652;27;20016;-70
2021/11/29 02:23:55;;;;;;;4.93;1.10;;;3.00;99.90;;;;;;5094378;28;20032;-66
2021/11/29 02:26:24;;;;;;;8.40;2.22;;;3.20;99.90;;;;;;5100773;28;20474;-66
2021/11/29 02:28:55;;;;;;;2.80;0.73;;;3.30;99.90;;;;;;5117553;27;20023;-67
2021/11/29 02:31:25;;;;;;;8.38;1.70;;;3.30;99.90;;;;;;5094473;28;20501;-65
2021/11/29 02:33:50;;;;;;;8.82;0.90;;;3.40;99.90;;;;;;5098235;27;20055;-65
2021/11/29 02:36:16;;;;;;;5.35;0.90;;;3.40;99.90;;;;;;5093894;27;20082;-65
2021/11/29 02:38:42;;;;;;;6.28;0.90;;;3.30;99.90;;;;;;5096892;28;20036;-65
2021/11/29 02:41:08;;;;;;;7.22;1.00;;;3.30;99.90;;;;;;5096729;27;20409;-71
2021/11/29 02:43:34;;;;;;;2.00;0.65;;;3.30;99.90;;;;;;5088302;28;20500;-69
2021/11/29 02:46:00;;;;;;;6.90;1.33;;;3.30;99.90;;;;;;5094714;28;20025;-71
2021/11/29 02:48:47;;;;;;;5.18;0.82;;;3.40;99.90;;;;;;5103087;28;20027;-71
2021/11/29 02:51:29;;;;;;;4.60;1.35;;;3.50;99.90;;;;;;5096483;27;20015;-72
2021/11/29 02:54:00;;;;;;;5.85;1.17;;;3.60;99.90;;;;;;5110532;27;20031;-71
2021/11/29 02:56:26;;;;;;;6.05;1.65;;;3.60;99.90;;;;;;5100577;27;20020;-71
2021/11/29 02:58:52;;;;;;;3.90;0.75;;;3.60;99.90;;;;;;5074515;28;20027;-70
2021/11/29 03:01:17;;;;;;;5.65;1.15;;;3.60;99.90;;;;;;5103236;28;20035;-71
2021/11/29 03:03:52;;;;;;;2.03;0.70;;;3.60;99.90;;;;;;5090406;27;20501;-71
2021/11/29 03:06:18;;;;;;;5.63;0.70;;;3.60;99.90;;;;;;5076403;27;20027;-70
2021/11/29 03:08:45;;;;;;;3.45;0.80;;;3.70;99.90;;;;;;5098799;27;20063;-70
2021/11/29 03:11:12;;;;;;;1.83;1.33;;;3.70;99.90;;;;;;5093280;28;20134;-72
2021/11/29 03:13:38;;;;;;;8.73;1.60;;;3.60;99.90;;;;;;5096729;28;20123;-71
2021/11/29 03:16:04;;;;;;;3.03;0.82;;;3.60;99.90;;;;;;5092517;28;20076;-71
2021/11/29 03:18:31;;;;;;;7.43;1.27;;;3.60;99.90;;;;;;5087190;28;20106;-70
2021/11/29 03:20:56;;;;;;;6.22;1.02;;;3.70;99.90;;;;;;5094825;28;20027;-70
2021/11/29 03:23:22;;;;;;;4.53;1.38;;;3.80;99.90;;;;;;5091832;27;20398;-68
2021/11/29 03:25:48;;;;;;;7.88;2.08;;;3.90;99.90;;;;;;5092268;27;20088;-70
2021/11/29 03:28:14;;;;;;;3.10;0.80;;;4.00;99.90;;;;;;5106094;27;20473;-67
2021/11/29 03:30:40;;;;;;;10.95;1.25;;;4.00;99.90;;;;;;5095901;27;20046;-68
2021/11/29 03:33:05;;;;;;;3.55;1.13;;;4.10;99.90;;;;;;5118558;27;20031;-69
2021/11/29 03:35:31;;;;;;;7.03;1.67;;;4.20;99.90;;;;;;5093080;27;20054;-71
2021/11/29 03:37:57;;;;;;;2.78;1.27;;;4.10;99.90;;;;;;5097025;27;20127;-69
2021/11/29 03:40:22;;;;;;;3.75;1.23;;;4.20;99.90;;;;;;5096206;27;20031;-69
2021/11/29 03:42:48;;;;;;;1.88;0.70;;;4.20;99.90;;;;;;5103956;27;20557;-65
2021/11/29 03:45:14;;;;;;;7.07;1.05;;;4.30;99.90;;;;;;5096377;27;20550;-66
2021/11/29 03:47:41;;;;;;;5.15;0.68;;;4.40;99.90;;;;;;5079225;27;20031;-64
2021/11/29 03:50:07;;;;;;;1.10;0.55;;;4.40;99.90;;;;;;5105761;27;20024;-69
2021/11/29 03:52:33;;;;;;;8.57;1.23;;;4.30;99.90;;;;;;5117741;27;20029;-73
2021/11/29 03:54:59;;;;;;;11.85;1.98;;;3.80;99.90;;;;;;5097243;27;20020;-75
2021/11/29 03:57:24;;;;;;;4.90;1.00;;;3.30;99.90;;;;;;5101475;28;20046;-76
2021/11/29 03:59:50;;;;;;;7.93;1.55;;;2.90;99.90;;;;;;5108116;28;20038;-79
2021/11/29 04:02:15;;;;;;;7.53;1.48;;;2.70;99.90;;;;;;5107134;27;20032;-78
2021/11/29 04:04:42;;;;;;;5.97;1.45;;;2.50;99.90;;;;;;5112962;27;20099;-77
2021/11/29 04:07:07;;;;;;;13.73;1.58;;;2.40;99.90;;;;;;5098663;27;20031;-75
2021/11/29 04:09:33;;;;;;;6.13;2.17;;;2.40;99.90;;;;;;5087457;27;20544;-75
2021/11/29 04:11:58;;;;;;;11.02;1.70;;;2.30;99.90;;;;;;5071547;27;20035;-75
2021/11/29 04:14:24;;;;;;;5.90;2.88;;;2.30;99.90;;;;;;5080020;27;20023;-73
2021/11/29 04:16:50;;;;;;;7.05;1.10;;;2.20;99.90;;;;;;5091675;27;20031;-73
2021/11/29 04:19:15;;;;;;;9.32;1.60;;;2.20;99.90;;;;;;5117012;27;20027;-72
2021/11/29 04:21:41;;;;;;;13.43;2.10;;;2.20;99.90;;;;;;5086731;27;20031;-71
2021/11/29 04:24:08;;;;;;;7.82;1.40;;;2.10;99.90;;;;;;5121101;27;20016;-70
2021/11/29 04:26:34;;;;;;;7.22;1.25;;;2.10;99.90;;;;;;5110127;28;20050;-71
2021/11/29 04:29:05;;;;;;;5.43;2.47;;;2.10;99.90;;;;;;5088515;28;20028;-70
2021/11/29 04:31:32;;;;;;;6.57;1.45;;;2.10;99.90;;;;;;5132377;27;20055;-70
2021/11/29 04:33:57;;;;;;;5.30;1.80;;;2.10;99.90;;;;;;5102960;27;20026;-69
2021/11/29 04:36:23;;;;;;;10.05;1.17;;;2.20;99.90;;;;;;5105983;27;20039;-71
2021/11/29 04:38:49;;;;;;;8.07;1.80;;;2.30;99.90;;;;;;5064982;27;20035;-71
2021/11/29 04:41:14;;;;;;;5.20;2.10;;;2.30;99.90;;;;;;5116214;27;20486;-70
2021/11/29 04:43:40;;;;;;;5.85;2.35;;;2.40;99.90;;;;;;5100178;28;20036;-69
2021/11/29 04:46:05;;;;;;;19.75;1.85;;;2.40;99.90;;;;;;5066431;28;20020;-71
2021/11/29 04:48:31;;;;;;;8.75;1.20;;;2.40;99.90;;;;;;5092532;27;20026;-71
2021/11/29 04:50:57;;;;;;;11.95;1.30;;;2.40;99.90;;;;;;5093690;27;20108;-70
2021/11/29 04:53:23;;;;;;;5.43;1.92;;;2.40;99.90;;;;;;5117133;27;20042;-70
2021/11/29 04:55:48;;;;;;;5.97;1.83;;;2.40;99.90;;;;;;5094678;27;20306;-71
2021/11/29 04:58:14;;;;;;;6.40;1.25;;;2.40;99.90;;;;;;5094762;28;20058;-73
2021/11/29 05:00:40;;;;;;;10.20;1.40;;;2.40;99.90;;;;;;5091408;27;20027;-72
2021/11/29 05:03:05;;;;;;;5.88;1.20;;;2.40;99.90;;;;;;5077839;28;20114;-73
2021/11/29 05:05:31;;;;;;;3.63;1.00;;;2.40;99.90;;;;;;5099290;27;20040;-72
2021/11/29 05:07:57;;;;;;;8.82;1.42;;;2.50;99.90;;;;;;5100419;27;20023;-71
2021/11/29 05:10:22;;;;;;;7.20;1.13;;;2.60;99.90;;;;;;5092221;27;20027;-71
2021/11/29 05:12:48;;;;;;;6.82;1.55;;;2.80;99.90;;;;;;5087339;28;20032;-70
2021/11/29 05:15:13;;;;;;;5.05;0.55;;;3.00;99.90;;;;;;5114455;27;20106;-70
2021/11/29 05:17:39;;;;;;;4.00;1.35;;;3.10;99.90;;;;;;5070698;27;20512;-70
2021/11/29 05:20:06;;;;;;;3.95;1.17;;;3.10;99.90;;;;;;5085219;27;20028;-70
2021/11/29 05:22:31;;;;;;;2.25;0.82;;;3.10;99.90;;;;;;5099532;28;20118;-70
2021/11/29 05:24:57;;;;;;;4.32;1.27;;;3.10;99.90;;;;;;5090773;28;20123;-70
2021/11/29 05:27:23;;;;;;;9.02;1.90;;;3.10;99.90;;;;;;5088788;27;20027;-69
2021/11/29 05:29:48;;;;;;;10.20;1.15;;;3.20;99.90;;;;;;5101785;27;20466;-70
2021/11/29 05:32:14;;;;;;;8.18;0.88;;;3.30;99.90;;;;;;5107822;27;20118;-69
2021/11/29 05:34:40;;;;;;;8.07;1.20;;;3.20;99.90;;;;;;5106005;27;20035;-70
2021/11/29 05:37:05;;;;;;;5.88;0.90;;;3.20;99.90;;;;;;5105766;27;20501;-71
2021/11/29 05:39:31;;;;;;;1.42;0.75;;;3.30;99.90;;;;;;5103328;28;20027;-72
2021/11/29 05:41:56;;;;;;;3.38;1.33;;;3.10;99.90;;;;;;5083660;27;20397;-71
2021/11/29 05:44:22;;;;;;;2.47;1.05;;;2.80;99.90;;;;;;5106989;27;20034;-71
2021/11/29 05:46:48;;;;;;;4.22;1.00;;;2.70;99.90;;;;;;5085982;28;20423;-70
2021/11/29 05:49:14;;;;;;;4.63;0.98;;;2.70;99.90;;;;;;5092807;27;20039;-71
2021/11/29 05:51:39;;;;;;;4.45;2.38;;;2.70;99.90;;;;;;5089598;27;20039;-71
2021/11/29 05:54:05;;;;;;;6.80;0.98;;;2.70;99.90;;;;;;5096696;27;20548;-70
2021/11/29 05:56:31;;;;;;;5.30;0.75;;;2.80;99.90;;;;;;5071003;28;20088;-69
2021/11/29 05:58:56;;;;;;;6.90;1.63;;;2.80;99.90;;;;;;5114717;27;20031;-71
2021/11/29 06:01:23;;;;;;;8.70;1.30;;;2.80;99.90;;;;;;5096488;27;20047;-74
2021/11/29 06:03:49;;;;;;;8.65;0.88;;;2.90;99.90;;;;;;5098988;28;20024;-72
2021/11/29 06:06:15;;;;;;;5.32;1.48;;;2.90;99.90;;;;;;5072568;27;20041;-70
2021/11/29 06:08:40;;;;;;;7.40;1.52;;;3.10;99.90;;;;;;5112183;27;20036;-74
2021/11/29 06:11:06;;;;;;;10.40;1.33;;;3.10;99.90;;;;;;5087990;27;20055;-73
2021/11/29 06:13:32;;;;;;;2.38;1.00;;;3.20;99.90;;;;;;5097246;28;20040;-74
2021/11/29 06:15:57;;;;;;;6.30;1.10;;;3.30;99.90;;;;;;5075808;27;20016;-74
2021/11/29 06:18:23;;;;;;;4.95;1.08;;;3.30;99.90;;;;;;5092807;28;20031;-75
2021/11/29 06:20:49;;;;;;;5.38;1.30;;;3.40;99.90;;;;;;5075610;27;20740;-74
2021/11/29 06:23:14;;;;;;;3.15;0.90;;;3.40;99.90;;;;;;5089980;28;20039;-70
2021/11/29 06:25:40;;;;;;;6.03;1.35;;;3.40;99.90;;;;;;5077109;27;20032;-72
2021/11/29 06:28:06;;;;;;;6.95;1.77;;;3.50;99.90;;;;;;5081701;27;20031;-73
2021/11/29 06:30:32;;;;;;;5.10;1.20;;;3.50;99.90;;;;;;5086534;28;20098;-71
2021/11/29 06:32:58;;;;;;;2.72;1.38;;;3.50;99.90;;;;;;5072638;28;20114;-72
2021/11/29 06:35:23;;;;;;;5.78;1.35;;;3.50;99.90;;;;;;5095491;28;20030;-72
2021/11/29 06:37:59;;;;;;;3.92;1.08;;;3.60;99.90;;;;;;5122020;27;22834;-73
2021/11/29 06:40:25;;;;;;;7.18;1.40;;;3.60;99.90;;;;;;5126765;27;20031;-73
2021/11/29 06:42:51;;;;;;;3.33;1.15;;;3.60;99.90;;;;;;5089261;27;20059;-73
2021/11/29 06:45:16;;;;;;;5.88;0.93;;;3.60;99.90;;;;;;5119165;27;20240;-69
2021/11/29 06:47:42;;;;;;;8.07;0.70;;;3.70;99.90;;;;;;5076258;27;20122;-73
2021/11/29 06:50:10;;;;;;;4.53;1.02;;;3.80;99.90;;;;;;5080864;28;20023;-69
2021/11/29 06:52:36;;;;;;;7.13;1.23;;;3.90;99.90;;;;;;5103413;28;20027;-67
2021/11/29 06:55:02;;;;;;;3.90;1.20;;;3.90;99.90;;;;;;5078059;27;20032;-69
2021/11/29 06:57:28;;;;;;;7.07;1.42;;;4.00;99.90;;;;;;5108374;27;20160;-67
2021/11/29 06:59:54;;;;;;;4.75;1.85;;;4.00;99.90;;;;;;5101471;27;20481;-72
2021/11/29 07:02:22;;;;;;;4.60;1.20;;;4.00;99.90;;;;;;5079048;27;20046;-74
2021/11/29 07:04:48;;;;;;;7.57;0.90;;;4.00;99.90;;;;;;5091321;27;20023;-74
2021/11/29 07:07:13;;;;;;;3.78;1.20;;;4.10;99.90;;;;;;5100077;28;20031;-74
2021/11/29 07:09:39;;;;;;;6.55;0.90;;;4.20;99.90;;;;;;5077213;28;20465;-75
2021/11/29 07:12:06;;;;;;;7.30;1.15;;;4.10;99.90;;;;;;5102694;28;20034;-73
2021/11/29 07:14:31;;;;;;;10.13;1.10;;;4.10;99.90;;;;;;5115447;27;20020;-70
2021/11/29 07:16:57;;;;;;;5.70;1.10;;;4.10;99.90;;;;;;5098124;28;20046;-74
2021/11/29 07:19:23;;;;;;;6.80;1.50;;;4.10;99.90;;;;;;5060307;28;20016;-73
2021/11/29 07:21:50;;;;;;;10.27;1.58;;;4.20;99.90;;;;;;5087808;28;20111;-73
2021/11/29 07:24:15;;;;;;;5.35;1.55;;;4.20;99.90;;;;;;5075773;28;20441;-71
2021/11/29 07:26:44;;;;;;;7.80;1.55;;;4.20;99.90;;;;;;5095179;28;20055;-75
2021/11/29 07:29:10;;;;;;;11.38;1.38;;;4.20;99.90;;;;;;5105177;28;20016;-72
2021/11/29 07:31:36;;;;;;;3.92;1.55;;;4.20;99.90;;;;;;5112250;28;20035;-75
2021/11/29 07:34:02;;;;;;;7.97;2.28;;;4.20;99.90;;;;;;5079263;28;20031;-73
2021/11/29 07:36:27;;;;;;;16.05;2.13;;;4.30;99.90;;;;;;5094113;28;20293;-76
2021/11/29 07:38:53;;;;;;;6.82;1.67;;;4.40;99.90;;;;;;5087678;28;20437;-72
2021/11/29 07:41:19;;;;;;;9.85;1.38;;;4.40;99.90;;;;;;5111779;28;20072;-72
2021/11/29 07:43:45;;;;;;;11.40;2.05;;;4.50;99.90;;;;;;5112691;28;20035;-72
2021/11/29 07:46:10;;;;;;;6.35;1.10;;;4.50;99.90;;;;;;5076372;28;20020;-72
2021/11/29 07:48:36;;;;;;;13.13;1.88;;;4.60;99.90;;;;;;5097002;28;20088;-72
2021/11/29 07:51:01;;;;;;;7.82;1.23;;;4.60;99.90;;;;;;5080966;28;20027;-71
2021/11/29 07:53:29;;;;;;;9.18;1.73;;;4.70;99.90;;;;;;5122236;28;20072;-73
2021/11/29 07:55:55;;;;;;;7.90;3.20;;;4.70;99.90;;;;;;5097558;28;20359;-74
2021/11/29 07:58:21;;;;;;;2.95;1.58;;;4.70;99.90;;;;;;5097090;28;20062;-75
2021/11/29 08:00:48;;;;;;;3.35;0.88;;;4.80;99.90;;;;;;5098746;28;20076;-75
2021/11/29 08:03:14;;;;;;;8.82;3.05;;;4.90;99.90;;;;;;5103378;28;20469;-78
2021/11/29 08:05:40;;;;;;;6.40;1.52;;;5.00;99.90;;;;;;5095559;28;20531;-77
2021/11/29 08:08:07;;;;;;;5.95;1.25;;;5.00;99.90;;;;;;5096437;28;20027;-85
2021/11/29 08:10:36;;;;;;;10.90;2.17;;;5.10;99.90;;;;;;5093236;28;20032;-78
2021/11/29 08:13:02;;;;;;;12.80;2.33;;;5.10;99.90;;;;;;5101746;28;20389;-83
2021/11/29 08:15:29;;;;;;;3.15;1.10;;;5.20;99.90;;;;;;5077897;27;20108;-79
2021/11/29 08:17:55;;;;;;;2.67;0.70;;;5.20;99.90;;;;;;5081926;28;20047;-81
2021/11/29 08:20:24;;;;;;;1.95;0.40;;;5.10;99.90;;;;;;5065456;27;20053;-77
2021/11/29 08:22:50;;;;;;;1.23;0.50;;;4.90;99.90;;;;;;5110854;27;20067;-78
2021/11/29 08:25:16;;;;;;;2.53;0.73;;;4.40;99.90;;;;;;5096466;27;20029;-74
2021/11/29 08:27:42;;;;;;;1.05;0.60;;;3.80;99.90;;;;;;5096013;27;20035;-73
2021/11/29 08:30:12;;;;;;;3.80;0.73;;;3.50;99.90;;;;;;5111272;27;20032;-73
2021/11/29 08:32:41;;;;;;;2.45;0.77;;;3.30;99.90;;;;;;5094561;28;20432;-71
2021/11/29 08:35:07;;;;;;;2.78;1.05;;;3.30;99.90;;;;;;5101036;28;20027;-74
2021/11/29 08:37:33;;;;;;;4.70;0.60;;;3.30;99.90;;;;;;5072899;27;20066;-74
2021/11/29 08:39:59;;;;;;;4.50;0.50;;;3.40;99.90;;;;;;5095336;27;20398;-76
2021/11/29 08:42:25;;;;;;;3.10;0.50;;;3.50;99.90;;;;;;5106305;27;20071;-73
2021/11/29 08:44:51;;;;;;;2.30;0.80;;;3.60;99.90;;;;;;5098315;27;20064;-75
2021/11/29 08:47:16;;;;;;;5.15;1.02;;;3.70;99.90;;;;;;5081129;27;20027;-76
2021/11/29 08:49:44;;;;;;;5.60;0.90;;;3.80;99.90;;;;;;5092681;28;20019;-76
2021/11/29 08:52:12;;;;;;;1.27;0.55;;;3.90;99.90;;;;;;5075831;28;20028;-76
2021/11/29 08:54:40;;;;;;;4.25;2.05;;;4.00;99.90;;;;;;5101813;27;20088;-76
2021/11/29 08:57:09;;;;;;;6.43;1.05;;;4.10;99.90;;;;;;5088764;28;20020;-76
2021/11/29 08:59:35;;;;;;;3.63;0.98;;;4.20;99.90;;;;;;5097428;27;20027;-75
2021/11/29 09:02:00;;;;;;;5.32;0.82;;;4.40;99.90;;;;;;5069313;27;20516;-76
2021/11/29 09:04:26;;;;;;;3.08;2.05;;;4.50;99.90;;;;;;5097666;28;20022;-77
2021/11/29 09:06:52;;;;;;;6.45;1.02;;;4.50;99.90;;;;;;5111230;27;20114;-78
2021/11/29 09:09:17;;;;;;;4.03;1.08;;;4.70;99.90;;;;;;5112321;28;20028;-78
2021/11/29 09:11:43;;;;;;;4.60;1.27;;;4.80;99.90;;;;;;5098463;27;20027;-76
2021/11/29 09:14:09;;;;;;;1.40;0.70;;;4.70;99.90;;;;;;5120504;27;20019;-80
2021/11/29 09:16:35;;;;;;;7.65;0.88;;;4.70;99.90;;;;;;5125457;27;20032;-75
2021/11/29 09:19:01;;;;;;;1.88;0.47;;;4.70;99.90;;;;;;5113415;28;20103;-81
2021/11/29 09:21:27;;;;;;;2.20;0.47;;;4.70;99.90;;;;;;5112570;28;20027;-78
2021/11/29 09:23:53;;;;;;;2.35;0.60;;;4.60;99.90;;;;;;5114738;28;20038;-77
2021/11/29 09:26:18;;;;;;;0.63;0.40;;;4.60;99.90;;;;;;5111164;27;20064;-76
2021/11/29 09:28:44;;;;;;;0.65;0.40;;;4.60;99.90;;;;;;5093039;27;20031;-76
2021/11/29 09:31:11;;;;;;;2.47;0.52;;;4.70;99.90;;;;;;5099417;28;20102;-77
2021/11/29 09:33:38;;;;;;;2.80;0.80;;;4.80;99.90;;;;;;5107835;27;20119;-75
2021/11/29 09:36:04;;;;;;;7.53;1.35;;;4.80;99.90;;;;;;5080705;27;20023;-76
2021/11/29 09:38:31;;;;;;;3.72;2.20;;;4.90;99.90;;;;;;5106323;28;20058;-73
2021/11/29 09:40:57;;;;;;;5.18;0.90;;;5.10;99.90;;;;;;5110093;28;20022;-77
2021/11/29 09:43:23;;;;;;;4.75;1.33;;;5.50;99.90;;;;;;5083477;28;20036;-75
2021/11/29 09:45:50;;;;;;;2.28;1.25;;;6.30;99.90;;;;;;5098097;27;20023;-79
2021/11/29 09:48:17;;;;;;;3.58;0.90;;;7.10;99.90;;;;;;5085357;27;20089;-74
2021/11/29 09:50:53;;;;;;;3.72;1.10;;;7.60;99.90;;;;;;5101938;28;20020;-77
2021/11/29 09:53:21;;;;;;;3.40;0.60;;;7.60;99.90;;;;;;5089774;28;20474;-74
2021/11/29 09:55:47;;;;;;;0.80;0.40;;;7.50;99.90;;;;;;5113346;28;20028;-77
2021/11/29 09:58:13;;;;;;;4.03;0.70;;;7.30;99.90;;;;;;5073039;27;20027;-73
2021/11/29 10:00:48;;;;;;;5.68;1.10;;;7.00;99.90;;;;;;5084046;27;20035;-76
2021/11/29 10:03:14;;;;;;;1.48;0.80;;;6.70;99.90;;;;;;5093497;28;20043;-74
2021/11/29 10:05:41;;;;;;;1.85;0.70;;;6.40;99.90;;;;;;5098547;27;20028;-77
2021/11/29 10:08:36;;;;;;;9.73;1.30;;;6.30;99.90;;;;;;5103398;27;20028;-74
2021/11/29 10:11:05;;;;;;;;;;;6.40;99.90;;;;;;5096704;27;20035;-75
2021/11/29 10:13:46;;;;;;;4.13;0.90;;;6.60;99.90;;;;;;5100612;27;20388;-69
2021/11/29 10:16:12;;;;;;;2.30;1.02;;;6.80;99.90;;;;;;5100503;27;20027;-74
2021/11/29 10:18:39;;;;;;;5.95;0.80;;;6.90;99.90;;;;;;5083104;28;20118;-73
2021/11/29 10:21:09;;;;;;;3.22;0.77;;;7.10;99.90;;;;;;5105491;28;20466;-69
2021/11/29 10:23:40;;;;;;;3.60;0.63;;;7.10;99.90;;;;;;5107908;27;20041;-72
2021/11/29 10:26:18;;;;;;;8.57;0.88;;;7.10;99.90;;;;;;5100006;27;20110;-72
2021/11/29 10:28:55;;;;;;;7.38;0.80;;;7.10;99.90;;;;;;5095199;27;20393;-76
2021/11/29 10:31:43;;;;;;;1.17;0.65;;;7.10;99.90;;;;;;5113082;27;20031;-68
2021/11/29 10:34:14;;;;;;;6.13;0.68;;;7.30;99.90;;;;;;5097685;27;20469;-72
2021/11/29 10:36:41;;;;;;;3.50;0.47;;;7.50;99.90;;;;;;5112549;28;20118;-80
2021/11/29 10:39:15;;;;;;;1.55;0.70;;;7.70;99.90;;;;;;5117762;28;20023;-80
2021/11/29 10:41:54;;;;;;;4.30;1.13;;;7.80;99.90;;;;;;5109755;27;20361;-71
2021/11/29 10:44:32;;;;;;;3.78;0.95;;;7.70;99.90;;;;;;5107530;27;20031;-74
2021/11/29 10:47:09;;;;;;;5.75;0.70;;;7.70;99.90;;;;;;5125200;27;20091;-78
2021/11/29 10:49:39;;;;;;;4.15;0.68;;;7.60;99.90;;;;;;5102802;27;20055;-74
2021/11/29 10:52:06;;;;;;;4.55;0.85;;;7.70;99.90;;;;;;5095665;28;20020;-76
2021/11/29 10:54:34;;;;;;;6.22;1.00;;;7.90;99.90;;;;;;5089003;28;20436;-73
2021/11/29 10:57:01;;;;;;;2.75;1.02;;;7.90;99.90;;;;;;5111388;28;20030;-77
2021/11/29 10:59:30;;;;;;;7.25;1.50;;;8.00;99.90;;;;;;5097609;28;20110;-75
2021/11/29 11:01:59;;;;;;;4.90;1.70;;;7.90;99.90;;;;;;5117623;27;20034;-75
2021/11/29 11:04:26;;;;;;;14.82;2.05;;;7.90;99.90;;;;;;5104090;28;20043;-77
2021/11/29 11:06:56;;;;;;;2.05;0.63;;;7.90;99.90;;;;;;5102603;27;20030;-76
2021/11/29 11:09:28;;;;;;;12.88;0.95;;;8.00;99.90;;;;;;5098595;28;20023;-76
2021/11/29 11:12:07;;;;;;;1.92;0.50;;;8.00;99.90;;;;;;5094024;28;20136;-79
2021/11/29 11:14:35;;;;;;;4.05;1.42;;;8.00;99.90;;;;;;5095560;28;20024;-73
2021/11/29 11:17:10;;;;;;;8.07;2.10;;;8.10;99.90;;;;;;5092123;27;20027;-73
2021/11/29 11:19:49;;;;;;;3.88;0.80;;;8.20;99.90;;;;;;5116335;28;20032;-79
2021/11/29 11:22:28;;;;;;;2.80;0.90;;;8.20;99.90;;;;;;5122553;27;20101;-76
2021/11/29 11:25:13;;;;;;;2.83;1.00;;;8.30;99.90;;;;;;5087292;28;20023;-85
2021/11/29 11:27:40;;;;;;;2.05;0.40;;;8.40;99.90;;;;;;5100517;28;20027;-81
2021/11/29 11:30:15;;;;;;;7.07;0.85;;;8.40;99.90;;;;;;5117732;28;20474;-81
2021/11/29 11:32:43;;;;;;;2.88;0.63;;;8.40;99.90;;;;;;5104420;28;20455;-81
2021/11/29 11:35:18;;;;;;;3.88;0.77;;;8.40;99.90;;;;;;5100699;28;20473;-80
2021/11/29 11:37:46;;;;;;;1.10;0.73;;;8.40;99.90;;;;;;5086614;28;20055;-83
2021/11/29 11:40:19;;;;;;;2.90;1.02;;;8.50;99.90;;;;;;5107203;28;20019;-77
2021/11/29 11:42:47;;;;;;;1.25;0.50;;;8.50;99.90;;;;;;5101366;28;20408;-85
2021/11/29 11:45:16;;;;;;;4.93;0.70;;;8.50;99.90;;;;;;5131013;27;20485;-77
2021/11/29 11:47:43;;;;;;;0.52;0.52;;;8.40;99.90;;;;;;5120698;27;20046;-82
2021/11/29 11:50:11;;;;;;;2.45;0.60;;;8.20;99.90;;;;;;5100291;27;20028;-68
2021/11/29 11:52:37;;;;;;;2.85;0.90;;;8.30;99.90;;;;;;5100574;27;20063;-68
2021/11/29 11:55:07;;;;;;;3.58;0.90;;;8.40;99.90;;;;;;5101767;28;20031;-71
2021/11/29 11:57:33;;;;;;;2.60;0.75;;;8.50;99.90;;;;;;5102424;28;20091;-67
2021/11/29 12:00:08;;;;;;;9.73;1.42;;;8.80;99.90;;;;;;5086110;28;20106;-72
2021/11/29 12:03:05;;;;;;;4.00;0.77;;;9.00;99.90;;;;;;5105792;27;20453;-76
2021/11/29 12:05:34;;;;;;;7.93;0.77;;;9.30;99.90;;;;;;5100084;27;20047;-73
2021/11/29 12:08:01;;;;;;;4.10;0.85;;;9.50;99.90;;;;;;5092313;27;20054;-76
2021/11/29 12:10:40;;;;;;;5.20;1.48;;;9.50;99.90;;;;;;5135844;27;20099;-79
2021/11/29 12:13:05;;;;;;;3.40;0.60;;;9.50;99.90;;;;;;5102071;28;20027;-78
2021/11/29 12:15:46;;;;;;;7.85;0.57;;;9.70;99.90;;;;;;5128286;27;20019;-74
2021/11/29 12:18:32;;;;;;;3.67;0.57;;;9.70;99.90;;;;;;5080545;28;20031;-76
2021/11/29 12:21:16;;;;;;;3.88;1.40;;;9.60;99.90;;;;;;5116615;27;20028;-77
2021/11/29 12:24:14;;;;;;;2.63;0.55;;;9.50;99.90;;;;;;5105924;27;20046;-74
2021/11/29 12:26:45;;;;;;;3.20;0.90;;;9.30;99.90;;;;;;5135982;27;20284;-75
2021/11/29 12:29:20;;;;;;;4.72;0.88;;;9.20;99.90;;;;;;5109171;27;20451;-78
2021/11/29 12:31:47;;;;;;;3.38;0.55;;;9.10;99.90;;;;;;5113354;27;20504;-78
2021/11/29 12:34:13;;;;;;;7.65;0.80;;;9.20;99.90;;;;;;5109994;27;20034;-73
2021/11/29 12:36:57;;;;;;;2.55;1.02;;;9.40;99.90;;;;;;5106497;28;20024;-74
2021/11/29 12:39:41;;;;;;;2.25;0.50;;;9.40;99.90;;;;;;5127945;27;20051;-74
2021/11/29 12:42:07;;;;;;;2.33;0.47;;;9.40;99.90;;;;;;5130444;27;20489;-74
2021/11/29 12:44:45;;;;;;;1.77;0.70;;;9.20;99.90;;;;;;5117002;27;20084;-69
2021/11/29 12:47:29;;;;;;;1.10;0.40;;;9.10;99.90;;;;;;5116983;27;20023;-72
2021/11/29 12:50:07;;;;;;;1.00;0.30;;;8.80;99.90;;;;;;5096774;27;20027;-70
2021/11/29 12:52:36;;;;;;;5.93;0.70;;;8.70;99.90;;;;;;5099314;27;20023;-74
2021/11/29 12:55:04;;;;;;;1.27;0.43;;;8.50;99.90;;;;;;5109798;27;20037;-74
2021/11/29 12:57:36;;;;;;;1.10;0.60;;;8.30;99.90;;;;;;5105788;27;20023;-71
2021/11/29 13:00:23;;;;;;;3.65;0.80;;;8.30;99.90;;;;;;5099332;27;20396;-76